sensor_id;sensor_type;location;lat;lon;timestamp;P1;durP1;ratioP1;P2;durP2;ratioP2
15482;SDS011;7843;50.330;7.312;2022-09-28T00:00:42;2.95;;;1.05;;
15482;SDS011;7843;50.330;7.312;2022-09-28T00:03:11;1.98;;;1.08;;
15482;SDS011;7843;50.330;7.312;2022-09-28T00:05:38;1.55;;;0.85;;
15482;SDS011;7843;50.330;7.312;2022-09-28T00:08:05;2.83;;;1.02;;
15482;SDS011;7843;50.330;7.312;2022-09-28T00:10:32;1.60;;;0.90;;
15482;SDS011;7843;50.330;7.312;2022-09-28T00:12:58;2.20;;;1.00;;
15482;SDS011;7843;50.330;7.312;2022-09-28T00:15:26;1.98;;;1.00;;
15482;SDS011;7843;50.330;7.312;2022-09-28T00:17:53;2.20;;;0.90;;
15482;SDS011;7843;50.330;7.312;2022-09-28T00:20:19;1.27;;;0.90;;
15482;SDS011;7843;50.330;7.312;2022-09-28T00:22:47;1.88;;;1.05;;
15482;SDS011;7843;50.330;7.312;2022-09-28T00:25:14;1.55;;;0.82;;
15482;SDS011;7843;50.330;7.312;2022-09-28T00:27:42;4.25;;;1.05;;
15482;SDS011;7843;50.330;7.312;2022-09-28T00:30:11;2.80;;;0.88;;
15482;SDS011;7843;50.330;7.312;2022-09-28T00:32:41;2.42;;;0.80;;
15482;SDS011;7843;50.330;7.312;2022-09-28T00:35:08;0.90;;;0.70;;
15482;SDS011;7843;50.330;7.312;2022-09-28T00:37:36;1.35;;;0.70;;
15482;SDS011;7843;50.330;7.312;2022-09-28T00:40:02;1.48;;;0.70;;
15482;SDS011;7843;50.330;7.312;2022-09-28T00:42:29;1.08;;;0.60;;
15482;SDS011;7843;50.330;7.312;2022-09-28T00:44:56;2.60;;;0.50;;
15482;SDS011;7843;50.330;7.312;2022-09-28T00:50:04;2.47;;;0.70;;
15482;SDS011;7843;50.330;7.312;2022-09-28T00:58:18;0.90;;;0.50;;
15482;SDS011;7843;50.330;7.312;2022-09-28T01:00:49;0.80;;;0.50;;
15482;SDS011;7843;50.330;7.312;2022-09-28T01:03:15;1.08;;;0.45;;
15482;SDS011;7843;50.330;7.312;2022-09-28T01:05:42;1.20;;;0.40;;
15482;SDS011;7843;50.330;7.312;2022-09-28T01:08:10;0.40;;;0.40;;
15482;SDS011;7843;50.330;7.312;2022-09-28T01:10:39;1.20;;;0.52;;
15482;SDS011;7843;50.330;7.312;2022-09-28T01:13:09;1.00;;;0.50;;
15482;SDS011;7843;50.330;7.312;2022-09-28T01:15:48;2.47;;;0.50;;
15482;SDS011;7843;50.330;7.312;2022-09-28T01:29:03;0.70;;;0.30;;
15482;SDS011;7843;50.330;7.312;2022-09-28T01:31:38;2.07;;;0.67;;
15482;SDS011;7843;50.330;7.312;2022-09-28T01:34:33;1.40;;;0.50;;
15482;SDS011;7843;50.330;7.312;2022-09-28T01:37:03;1.20;;;0.50;;
15482;SDS011;7843;50.330;7.312;2022-09-28T01:39:42;1.35;;;0.55;;
15482;SDS011;7843;50.330;7.312;2022-09-28T01:42:22;1.30;;;0.32;;
15482;SDS011;7843;50.330;7.312;2022-09-28T01:44:55;1.50;;;0.30;;
15482;SDS011;7843;50.330;7.312;2022-09-28T01:47:33;1.60;;;0.50;;
15482;SDS011;7843;50.330;7.312;2022-09-28T01:50:09;0.60;;;0.50;;
15482;SDS011;7843;50.330;7.312;2022-09-28T01:55:25;0.60;;;0.50;;
15482;SDS011;7843;50.330;7.312;2022-09-28T02:00:25;0.63;;;0.30;;
15482;SDS011;7843;50.330;7.312;2022-09-28T02:08:05;0.77;;;0.38;;
15482;SDS011;7843;50.330;7.312;2022-09-28T02:10:53;0.50;;;0.40;;
15482;SDS011;7843;50.330;7.312;2022-09-28T02:13:27;1.42;;;0.30;;
15482;SDS011;7843;50.330;7.312;2022-09-28T02:16:03;0.70;;;0.30;;
15482;SDS011;7843;50.330;7.312;2022-09-28T02:18:35;0.40;;;0.30;;
15482;SDS011;7843;50.330;7.312;2022-09-28T02:21:06;0.45;;;0.35;;
15482;SDS011;7843;50.330;7.312;2022-09-28T02:23:38;0.10;;;0.10;;
15482;SDS011;7843;50.330;7.312;2022-09-28T02:26:08;0.20;;;0.20;;
15482;SDS011;7843;50.330;7.312;2022-09-28T02:28:38;0.38;;;0.30;;
15482;SDS011;7843;50.330;7.312;2022-09-28T02:31:05;0.30;;;0.20;;
15482;SDS011;7843;50.330;7.312;2022-09-28T02:33:33;0.32;;;0.30;;
15482;SDS011;7843;50.330;7.312;2022-09-28T02:36:03;0.75;;;0.20;;
15482;SDS011;7843;50.330;7.312;2022-09-28T02:38:30;0.57;;;0.40;;
15482;SDS011;7843;50.330;7.312;2022-09-28T02:41:05;0.50;;;0.30;;
15482;SDS011;7843;50.330;7.312;2022-09-28T02:43:58;0.57;;;0.35;;
15482;SDS011;7843;50.330;7.312;2022-09-28T02:46:42;1.30;;;0.40;;
15482;SDS011;7843;50.330;7.312;2022-09-28T02:49:28;0.30;;;0.30;;
15482;SDS011;7843;50.330;7.312;2022-09-28T03:00:21;0.55;;;0.50;;
15482;SDS011;7843;50.330;7.312;2022-09-28T03:06:08;0.35;;;0.30;;
15482;SDS011;7843;50.330;7.312;2022-09-28T03:08:44;0.50;;;0.30;;
15482;SDS011;7843;50.330;7.312;2022-09-28T03:11:21;0.90;;;0.30;;
15482;SDS011;7843;50.330;7.312;2022-09-28T03:13:55;1.00;;;0.32;;
15482;SDS011;7843;50.330;7.312;2022-09-28T03:16:22;0.50;;;0.40;;
15482;SDS011;7843;50.330;7.312;2022-09-28T03:18:49;0.68;;;0.50;;
15482;SDS011;7843;50.330;7.312;2022-09-28T03:21:16;0.70;;;0.43;;
15482;SDS011;7843;50.330;7.312;2022-09-28T03:23:43;0.98;;;0.40;;
15482;SDS011;7843;50.330;7.312;2022-09-28T03:26:10;1.50;;;0.40;;
15482;SDS011;7843;50.330;7.312;2022-09-28T03:28:37;0.60;;;0.47;;
15482;SDS011;7843;50.330;7.312;2022-09-28T03:31:05;0.40;;;0.40;;
15482;SDS011;7843;50.330;7.312;2022-09-28T03:33:32;1.17;;;0.50;;
15482;SDS011;7843;50.330;7.312;2022-09-28T03:35:59;0.30;;;0.30;;
15482;SDS011;7843;50.330;7.312;2022-09-28T03:38:26;1.77;;;0.47;;
15482;SDS011;7843;50.330;7.312;2022-09-28T03:43:19;1.90;;;0.52;;
15482;SDS011;7843;50.330;7.312;2022-09-28T03:45:50;0.50;;;0.40;;
15482;SDS011;7843;50.330;7.312;2022-09-28T03:48:24;0.95;;;0.40;;
15482;SDS011;7843;50.330;7.312;2022-09-28T03:51:02;0.57;;;0.47;;
15482;SDS011;7843;50.330;7.312;2022-09-28T03:53:31;0.95;;;0.43;;
15482;SDS011;7843;50.330;7.312;2022-09-28T03:56:02;0.55;;;0.50;;
15482;SDS011;7843;50.330;7.312;2022-09-28T03:58:33;0.60;;;0.40;;
15482;SDS011;7843;50.330;7.312;2022-09-28T04:01:04;1.30;;;0.40;;
15482;SDS011;7843;50.330;7.312;2022-09-28T04:03:32;2.77;;;0.40;;
15482;SDS011;7843;50.330;7.312;2022-09-28T04:05:59;2.22;;;0.57;;
15482;SDS011;7843;50.330;7.312;2022-09-28T04:08:26;0.30;;;0.30;;
15482;SDS011;7843;50.330;7.312;2022-09-28T04:10:57;0.50;;;0.43;;
15482;SDS011;7843;50.330;7.312;2022-09-28T04:13:25;0.57;;;0.40;;
15482;SDS011;7843;50.330;7.312;2022-09-28T04:15:55;1.92;;;0.60;;
15482;SDS011;7843;50.330;7.312;2022-09-28T04:18:24;0.68;;;0.50;;
15482;SDS011;7843;50.330;7.312;2022-09-28T04:21:00;0.80;;;0.47;;
15482;SDS011;7843;50.330;7.312;2022-09-28T04:23:29;0.63;;;0.40;;
15482;SDS011;7843;50.330;7.312;2022-09-28T04:25:56;1.30;;;0.30;;
15482;SDS011;7843;50.330;7.312;2022-09-28T04:28:23;1.42;;;0.35;;
15482;SDS011;7843;50.330;7.312;2022-09-28T04:31:09;0.70;;;0.50;;
15482;SDS011;7843;50.330;7.312;2022-09-28T04:33:38;0.70;;;0.50;;
15482;SDS011;7843;50.330;7.312;2022-09-28T04:36:05;1.80;;;0.40;;
15482;SDS011;7843;50.330;7.312;2022-09-28T04:38:32;1.10;;;0.50;;
15482;SDS011;7843;50.330;7.312;2022-09-28T04:41:13;0.50;;;0.38;;
15482;SDS011;7843;50.330;7.312;2022-09-28T04:43:40;1.10;;;0.50;;
15482;SDS011;7843;50.330;7.312;2022-09-28T04:46:08;1.88;;;0.40;;
15482;SDS011;7843;50.330;7.312;2022-09-28T04:48:36;6.20;;;0.50;;
15482;SDS011;7843;50.330;7.312;2022-09-28T04:51:03;0.80;;;0.50;;
15482;SDS011;7843;50.330;7.312;2022-09-28T04:53:29;0.90;;;0.50;;
15482;SDS011;7843;50.330;7.312;2022-09-28T04:55:57;1.40;;;0.70;;
15482;SDS011;7843;50.330;7.312;2022-09-28T04:58:29;0.55;;;0.50;;
15482;SDS011;7843;50.330;7.312;2022-09-28T05:00:57;0.73;;;0.35;;
15482;SDS011;7843;50.330;7.312;2022-09-28T05:03:25;0.98;;;0.60;;
15482;SDS011;7843;50.330;7.312;2022-09-28T05:05:53;2.30;;;0.60;;
15482;SDS011;7843;50.330;7.312;2022-09-28T05:08:19;0.98;;;0.60;;
15482;SDS011;7843;50.330;7.312;2022-09-28T05:10:46;2.17;;;0.90;;
15482;SDS011;7843;50.330;7.312;2022-09-28T05:13:13;1.88;;;0.82;;
15482;SDS011;7843;50.330;7.312;2022-09-28T05:15:40;1.25;;;0.43;;
15482;SDS011;7843;50.330;7.312;2022-09-28T05:18:07;1.00;;;0.80;;
15482;SDS011;7843;50.330;7.312;2022-09-28T05:20:38;0.90;;;0.67;;
15482;SDS011;7843;50.330;7.312;2022-09-28T05:23:07;1.98;;;1.00;;
15482;SDS011;7843;50.330;7.312;2022-09-28T05:25:36;0.65;;;0.60;;
15482;SDS011;7843;50.330;7.312;2022-09-28T05:28:03;2.05;;;1.20;;
15482;SDS011;7843;50.330;7.312;2022-09-28T05:30:30;3.15;;;0.98;;
15482;SDS011;7843;50.330;7.312;2022-09-28T05:32:58;1.67;;;0.88;;
15482;SDS011;7843;50.330;7.312;2022-09-28T05:35:25;1.60;;;0.75;;
15482;SDS011;7843;50.330;7.312;2022-09-28T05:37:52;1.58;;;0.88;;
15482;SDS011;7843;50.330;7.312;2022-09-28T05:40:20;2.20;;;1.10;;
15482;SDS011;7843;50.330;7.312;2022-09-28T05:42:47;2.60;;;1.08;;
15482;SDS011;7843;50.330;7.312;2022-09-28T05:45:14;3.35;;;1.30;;
15482;SDS011;7843;50.330;7.312;2022-09-28T05:47:41;1.90;;;1.10;;
15482;SDS011;7843;50.330;7.312;2022-09-28T05:50:09;2.05;;;1.13;;
15482;SDS011;7843;50.330;7.312;2022-09-28T05:52:37;4.03;;;1.17;;
15482;SDS011;7843;50.330;7.312;2022-09-28T05:55:04;2.60;;;1.20;;
15482;SDS011;7843;50.330;7.312;2022-09-28T05:57:32;3.00;;;1.20;;
15482;SDS011;7843;50.330;7.312;2022-09-28T05:59:58;2.10;;;1.15;;
15482;SDS011;7843;50.330;7.312;2022-09-28T06:02:25;3.17;;;1.10;;
15482;SDS011;7843;50.330;7.312;2022-09-28T06:04:52;3.00;;;1.15;;
15482;SDS011;7843;50.330;7.312;2022-09-28T06:07:19;1.40;;;0.90;;
15482;SDS011;7843;50.330;7.312;2022-09-28T06:09:47;1.35;;;0.90;;
15482;SDS011;7843;50.330;7.312;2022-09-28T06:12:14;2.43;;;1.03;;
15482;SDS011;7843;50.330;7.312;2022-09-28T06:14:41;3.15;;;1.05;;
15482;SDS011;7843;50.330;7.312;2022-09-28T06:17:07;2.83;;;1.10;;
15482;SDS011;7843;50.330;7.312;2022-09-28T06:19:34;2.00;;;0.93;;
15482;SDS011;7843;50.330;7.312;2022-09-28T06:22:01;2.70;;;1.23;;
15482;SDS011;7843;50.330;7.312;2022-09-28T06:24:28;1.27;;;0.88;;
15482;SDS011;7843;50.330;7.312;2022-09-28T06:26:54;1.88;;;0.88;;
15482;SDS011;7843;50.330;7.312;2022-09-28T06:29:21;2.90;;;0.98;;
15482;SDS011;7843;50.330;7.312;2022-09-28T06:31:48;2.35;;;1.10;;
15482;SDS011;7843;50.330;7.312;2022-09-28T06:34:14;1.60;;;1.02;;
15482;SDS011;7843;50.330;7.312;2022-09-28T06:36:42;2.03;;;1.23;;
15482;SDS011;7843;50.330;7.312;2022-09-28T06:39:09;3.80;;;1.02;;
15482;SDS011;7843;50.330;7.312;2022-09-28T06:41:35;1.13;;;1.02;;
15482;SDS011;7843;50.330;7.312;2022-09-28T06:44:02;1.48;;;0.95;;
15482;SDS011;7843;50.330;7.312;2022-09-28T06:46:28;3.05;;;1.20;;
15482;SDS011;7843;50.330;7.312;2022-09-28T06:48:56;2.90;;;1.30;;
15482;SDS011;7843;50.330;7.312;2022-09-28T06:51:23;2.40;;;1.13;;
15482;SDS011;7843;50.330;7.312;2022-09-28T06:53:50;2.10;;;1.30;;
15482;SDS011;7843;50.330;7.312;2022-09-28T06:56:18;3.15;;;1.17;;
15482;SDS011;7843;50.330;7.312;2022-09-28T06:58:46;3.05;;;1.17;;
15482;SDS011;7843;50.330;7.312;2022-09-28T07:01:13;1.85;;;1.13;;
15482;SDS011;7843;50.330;7.312;2022-09-28T07:03:39;2.20;;;1.30;;
15482;SDS011;7843;50.330;7.312;2022-09-28T07:06:08;2.30;;;1.10;;
15482;SDS011;7843;50.330;7.312;2022-09-28T07:08:36;1.60;;;1.40;;
15482;SDS011;7843;50.330;7.312;2022-09-28T07:11:04;4.80;;;1.50;;
15482;SDS011;7843;50.330;7.312;2022-09-28T07:13:31;2.17;;;1.40;;
15482;SDS011;7843;50.330;7.312;2022-09-28T07:16:13;1.90;;;1.30;;
15482;SDS011;7843;50.330;7.312;2022-09-28T07:18:40;1.90;;;1.08;;
15482;SDS011;7843;50.330;7.312;2022-09-28T07:21:07;1.40;;;1.20;;
15482;SDS011;7843;50.330;7.312;2022-09-28T07:23:36;2.25;;;1.10;;
15482;SDS011;7843;50.330;7.312;2022-09-28T07:26:10;2.10;;;1.10;;
15482;SDS011;7843;50.330;7.312;2022-09-28T07:28:37;1.98;;;1.30;;
15482;SDS011;7843;50.330;7.312;2022-09-28T07:31:05;1.40;;;0.90;;
15482;SDS011;7843;50.330;7.312;2022-09-28T07:33:32;1.60;;;0.70;;
15482;SDS011;7843;50.330;7.312;2022-09-28T07:35:59;1.55;;;0.95;;
15482;SDS011;7843;50.330;7.312;2022-09-28T07:38:27;1.40;;;0.50;;
15482;SDS011;7843;50.330;7.312;2022-09-28T07:40:55;2.70;;;0.50;;
15482;SDS011;7843;50.330;7.312;2022-09-28T07:43:37;0.47;;;0.32;;
15482;SDS011;7843;50.330;7.312;2022-09-28T07:46:05;1.10;;;0.55;;
15482;SDS011;7843;50.330;7.312;2022-09-28T07:48:39;2.30;;;0.63;;
15482;SDS011;7843;50.330;7.312;2022-09-28T07:51:07;1.80;;;0.50;;
15482;SDS011;7843;50.330;7.312;2022-09-28T07:53:35;0.82;;;0.40;;
15482;SDS011;7843;50.330;7.312;2022-09-28T07:56:03;2.70;;;0.52;;
15482;SDS011;7843;50.330;7.312;2022-09-28T07:58:34;0.47;;;0.38;;
15482;SDS011;7843;50.330;7.312;2022-09-28T08:01:07;1.85;;;0.50;;
15482;SDS011;7843;50.330;7.312;2022-09-28T08:03:36;2.90;;;0.70;;
15482;SDS011;7843;50.330;7.312;2022-09-28T08:06:05;1.60;;;0.40;;
15482;SDS011;7843;50.330;7.312;2022-09-28T08:08:34;1.02;;;0.32;;
15482;SDS011;7843;50.330;7.312;2022-09-28T08:11:02;0.38;;;0.32;;
15482;SDS011;7843;50.330;7.312;2022-09-28T08:13:31;1.20;;;0.50;;
15482;SDS011;7843;50.330;7.312;2022-09-28T08:16:01;1.20;;;0.33;;
15482;SDS011;7843;50.330;7.312;2022-09-28T08:18:29;2.33;;;0.57;;
15482;SDS011;7843;50.330;7.312;2022-09-28T08:20:56;1.60;;;0.40;;
15482;SDS011;7843;50.330;7.312;2022-09-28T08:23:41;1.08;;;0.38;;
15482;SDS011;7843;50.330;7.312;2022-09-28T08:26:08;0.90;;;0.30;;
15482;SDS011;7843;50.330;7.312;2022-09-28T08:28:37;0.65;;;0.30;;
15482;SDS011;7843;50.330;7.312;2022-09-28T08:31:04;0.70;;;0.30;;
15482;SDS011;7843;50.330;7.312;2022-09-28T08:33:32;1.17;;;0.63;;
15482;SDS011;7843;50.330;7.312;2022-09-28T08:36:00;0.98;;;0.40;;
15482;SDS011;7843;50.330;7.312;2022-09-28T08:38:30;0.50;;;0.35;;
15482;SDS011;7843;50.330;7.312;2022-09-28T08:43:44;1.97;;;0.40;;
15482;SDS011;7843;50.330;7.312;2022-09-28T08:46:23;1.90;;;0.45;;
15482;SDS011;7843;50.330;7.312;2022-09-28T08:49:02;1.10;;;0.40;;
15482;SDS011;7843;50.330;7.312;2022-09-28T08:51:54;3.30;;;0.40;;
15482;SDS011;7843;50.330;7.312;2022-09-28T08:54:27;0.98;;;0.50;;
15482;SDS011;7843;50.330;7.312;2022-09-28T08:57:06;1.23;;;0.50;;
15482;SDS011;7843;50.330;7.312;2022-09-28T08:59:45;0.80;;;0.45;;
15482;SDS011;7843;50.330;7.312;2022-09-28T09:02:19;0.73;;;0.50;;
15482;SDS011;7843;50.330;7.312;2022-09-28T09:04:48;2.50;;;0.57;;
15482;SDS011;7843;50.330;7.312;2022-09-28T09:12:42;1.30;;;0.65;;
15482;SDS011;7843;50.330;7.312;2022-09-28T09:20:56;1.25;;;0.30;;
15482;SDS011;7843;50.330;7.312;2022-09-28T09:26:53;0.95;;;0.45;;
15482;SDS011;7843;50.330;7.312;2022-09-28T09:37:34;0.82;;;0.30;;
15482;SDS011;7843;50.330;7.312;2022-09-28T09:46:22;2.28;;;0.40;;
15482;SDS011;7843;50.330;7.312;2022-09-28T09:49:15;1.38;;;0.60;;
15482;SDS011;7843;50.330;7.312;2022-09-28T09:54:39;2.20;;;0.40;;
15482;SDS011;7843;50.330;7.312;2022-09-28T09:57:21;0.50;;;0.30;;
15482;SDS011;7843;50.330;7.312;2022-09-28T10:00:16;2.15;;;0.38;;
15482;SDS011;7843;50.330;7.312;2022-09-28T10:02:45;1.27;;;0.45;;
15482;SDS011;7843;50.330;7.312;2022-09-28T10:05:15;1.05;;;0.30;;
15482;SDS011;7843;50.330;7.312;2022-09-28T10:07:53;0.75;;;0.30;;
15482;SDS011;7843;50.330;7.312;2022-09-28T10:10:34;1.30;;;0.32;;
15482;SDS011;7843;50.330;7.312;2022-09-28T10:13:03;1.27;;;0.40;;
15482;SDS011;7843;50.330;7.312;2022-09-28T10:15:32;2.63;;;0.40;;
15482;SDS011;7843;50.330;7.312;2022-09-28T10:18:02;0.47;;;0.30;;
15482;SDS011;7843;50.330;7.312;2022-09-28T10:20:33;0.98;;;0.40;;
15482;SDS011;7843;50.330;7.312;2022-09-28T10:23:02;0.40;;;0.30;;
15482;SDS011;7843;50.330;7.312;2022-09-28T10:25:32;0.30;;;0.30;;
15482;SDS011;7843;50.330;7.312;2022-09-28T10:28:03;0.73;;;0.40;;
15482;SDS011;7843;50.330;7.312;2022-09-28T10:30:33;1.48;;;0.45;;
15482;SDS011;7843;50.330;7.312;2022-09-28T10:33:29;1.38;;;0.40;;
15482;SDS011;7843;50.330;7.312;2022-09-28T10:35:58;1.75;;;0.40;;
15482;SDS011;7843;50.330;7.312;2022-09-28T10:38:27;0.93;;;0.50;;
15482;SDS011;7843;50.330;7.312;2022-09-28T10:40:58;0.60;;;0.43;;
15482;SDS011;7843;50.330;7.312;2022-09-28T10:43:31;1.50;;;0.40;;
15482;SDS011;7843;50.330;7.312;2022-09-28T10:46:08;0.52;;;0.30;;
15482;SDS011;7843;50.330;7.312;2022-09-28T10:51:10;0.40;;;0.27;;
15482;SDS011;7843;50.330;7.312;2022-09-28T10:53:37;0.60;;;0.30;;
15482;SDS011;7843;50.330;7.312;2022-09-28T10:56:05;1.40;;;0.60;;
15482;SDS011;7843;50.330;7.312;2022-09-28T10:58:43;2.15;;;0.30;;
15482;SDS011;7843;50.330;7.312;2022-09-28T11:01:15;0.50;;;0.35;;
15482;SDS011;7843;50.330;7.312;2022-09-28T11:06:23;1.20;;;0.45;;
15482;SDS011;7843;50.330;7.312;2022-09-28T11:08:58;0.70;;;0.30;;
15482;SDS011;7843;50.330;7.312;2022-09-28T11:11:27;0.28;;;0.28;;
15482;SDS011;7843;50.330;7.312;2022-09-28T11:13:56;0.95;;;0.40;;
15482;SDS011;7843;50.330;7.312;2022-09-28T11:16:30;0.40;;;0.35;;
15482;SDS011;7843;50.330;7.312;2022-09-28T11:19:05;0.50;;;0.30;;
15482;SDS011;7843;50.330;7.312;2022-09-28T11:21:53;0.30;;;0.20;;
15482;SDS011;7843;50.330;7.312;2022-09-28T11:24:21;0.83;;;0.40;;
15482;SDS011;7843;50.330;7.312;2022-09-28T11:26:51;0.28;;;0.20;;
15482;SDS011;7843;50.330;7.312;2022-09-28T11:29:34;0.85;;;0.30;;
15482;SDS011;7843;50.330;7.312;2022-09-28T11:32:06;0.70;;;0.50;;
15482;SDS011;7843;50.330;7.312;2022-09-28T11:34:37;0.90;;;0.30;;
15482;SDS011;7843;50.330;7.312;2022-09-28T11:37:34;3.00;;;0.90;;
15482;SDS011;7843;50.330;7.312;2022-09-28T11:42:48;1.50;;;0.40;;
15482;SDS011;7843;50.330;7.312;2022-09-28T11:48:13;0.55;;;0.30;;
15482;SDS011;7843;50.330;7.312;2022-09-28T11:50:47;1.27;;;0.50;;
15482;SDS011;7843;50.330;7.312;2022-09-28T11:53:17;0.57;;;0.32;;
15482;SDS011;7843;50.330;7.312;2022-09-28T11:55:53;1.23;;;0.40;;
15482;SDS011;7843;50.330;7.312;2022-09-28T11:58:47;0.73;;;0.40;;
15482;SDS011;7843;50.330;7.312;2022-09-28T12:01:23;0.90;;;0.50;;
15482;SDS011;7843;50.330;7.312;2022-09-28T12:07:07;0.50;;;0.30;;
15482;SDS011;7843;50.330;7.312;2022-09-28T12:10:02;1.80;;;0.37;;
15482;SDS011;7843;50.330;7.312;2022-09-28T12:12:46;0.87;;;0.30;;
15482;SDS011;7843;50.330;7.312;2022-09-28T12:15:22;1.05;;;0.20;;
15482;SDS011;7843;50.330;7.312;2022-09-28T12:17:53;1.40;;;0.30;;
15482;SDS011;7843;50.330;7.312;2022-09-28T12:20:26;0.40;;;0.30;;
15482;SDS011;7843;50.330;7.312;2022-09-28T12:23:02;0.40;;;0.30;;
15482;SDS011;7843;50.330;7.312;2022-09-28T12:25:36;0.85;;;0.35;;
15482;SDS011;7843;50.330;7.312;2022-09-28T12:28:12;0.80;;;0.35;;
15482;SDS011;7843;50.330;7.312;2022-09-28T12:30:51;0.65;;;0.52;;
15482;SDS011;7843;50.330;7.312;2022-09-28T12:33:22;1.10;;;0.50;;
15482;SDS011;7843;50.330;7.312;2022-09-28T12:38:41;0.80;;;0.40;;
15482;SDS011;7843;50.330;7.312;2022-09-28T12:45:19;2.00;;;0.50;;
15482;SDS011;7843;50.330;7.312;2022-09-28T12:50:53;2.10;;;0.60;;
15482;SDS011;7843;50.330;7.312;2022-09-28T12:58:58;2.40;;;0.50;;
15482;SDS011;7843;50.330;7.312;2022-09-28T13:07:31;1.10;;;0.60;;
15482;SDS011;7843;50.330;7.312;2022-09-28T13:16:42;1.38;;;0.50;;
15482;SDS011;7843;50.330;7.312;2022-09-28T13:21:39;1.20;;;0.68;;
15482;SDS011;7843;50.330;7.312;2022-09-28T13:24:08;1.70;;;0.50;;
15482;SDS011;7843;50.330;7.312;2022-09-28T13:26:57;0.85;;;0.50;;
15482;SDS011;7843;50.330;7.312;2022-09-28T13:29:29;1.80;;;0.50;;
15482;SDS011;7843;50.330;7.312;2022-09-28T13:31:57;0.80;;;0.50;;
15482;SDS011;7843;50.330;7.312;2022-09-28T13:34:26;0.90;;;0.68;;
15482;SDS011;7843;50.330;7.312;2022-09-28T13:47:54;4.05;;;0.90;;
15482;SDS011;7843;50.330;7.312;2022-09-28T13:50:45;1.45;;;0.60;;
15482;SDS011;7843;50.330;7.312;2022-09-28T13:53:40;1.75;;;0.75;;
15482;SDS011;7843;50.330;7.312;2022-09-28T13:58:50;1.05;;;0.55;;
15482;SDS011;7843;50.330;7.312;2022-09-28T14:01:28;2.20;;;0.80;;
15482;SDS011;7843;50.330;7.312;2022-09-28T14:06:54;1.10;;;0.70;;
15482;SDS011;7843;50.330;7.312;2022-09-28T14:09:44;0.80;;;0.60;;
15482;SDS011;7843;50.330;7.312;2022-09-28T14:14:58;1.42;;;0.60;;
15482;SDS011;7843;50.330;7.312;2022-09-28T14:25:27;1.67;;;0.63;;
15482;SDS011;7843;50.330;7.312;2022-09-28T14:33:28;2.95;;;0.80;;
15482;SDS011;7843;50.330;7.312;2022-09-28T14:35:56;1.70;;;0.98;;
15482;SDS011;7843;50.330;7.312;2022-09-28T14:38:28;1.20;;;0.60;;
15482;SDS011;7843;50.330;7.312;2022-09-28T14:41:31;2.45;;;0.80;;
15482;SDS011;7843;50.330;7.312;2022-09-28T14:44:04;2.00;;;0.90;;
15482;SDS011;7843;50.330;7.312;2022-09-28T14:46:36;1.40;;;0.80;;
15482;SDS011;7843;50.330;7.312;2022-09-28T14:54:23;1.70;;;0.80;;
15482;SDS011;7843;50.330;7.312;2022-09-28T14:57:15;0.77;;;0.60;;
15482;SDS011;7843;50.330;7.312;2022-09-28T14:59:46;0.82;;;0.60;;
15482;SDS011;7843;50.330;7.312;2022-09-28T15:02:16;1.40;;;0.80;;
15482;SDS011;7843;50.330;7.312;2022-09-28T15:05:01;2.20;;;0.93;;
15482;SDS011;7843;50.330;7.312;2022-09-28T15:07:43;1.73;;;0.77;;
15482;SDS011;7843;50.330;7.312;2022-09-28T15:13:00;1.25;;;0.60;;
15482;SDS011;7843;50.330;7.312;2022-09-28T15:15:32;2.65;;;0.77;;
15482;SDS011;7843;50.330;7.312;2022-09-28T15:18:03;4.15;;;1.08;;
15482;SDS011;7843;50.330;7.312;2022-09-28T15:20:34;1.10;;;0.50;;
15482;SDS011;7843;50.330;7.312;2022-09-28T15:23:04;2.45;;;0.68;;
15482;SDS011;7843;50.330;7.312;2022-09-28T15:25:31;1.48;;;0.80;;
15482;SDS011;7843;50.330;7.312;2022-09-28T15:28:12;1.00;;;0.70;;
15482;SDS011;7843;50.330;7.312;2022-09-28T15:30:43;1.37;;;0.70;;
15482;SDS011;7843;50.330;7.312;2022-09-28T15:33:24;1.65;;;0.68;;
15482;SDS011;7843;50.330;7.312;2022-09-28T15:41:22;1.40;;;0.70;;
15482;SDS011;7843;50.330;7.312;2022-09-28T15:46:34;0.80;;;0.50;;
15482;SDS011;7843;50.330;7.312;2022-09-28T15:49:02;1.02;;;0.80;;
15482;SDS011;7843;50.330;7.312;2022-09-28T15:51:31;2.90;;;0.80;;
15482;SDS011;7843;50.330;7.312;2022-09-28T15:54:13;1.90;;;0.80;;
15482;SDS011;7843;50.330;7.312;2022-09-28T15:59:23;2.80;;;0.75;;
15482;SDS011;7843;50.330;7.312;2022-09-28T16:02:17;3.83;;;0.90;;
15482;SDS011;7843;50.330;7.312;2022-09-28T16:04:47;2.88;;;0.60;;
15482;SDS011;7843;50.330;7.312;2022-09-28T16:07:27;1.30;;;0.70;;
15482;SDS011;7843;50.330;7.312;2022-09-28T16:12:39;1.15;;;0.70;;
15482;SDS011;7843;50.330;7.312;2022-09-28T16:15:12;2.53;;;0.70;;
15482;SDS011;7843;50.330;7.312;2022-09-28T16:18:03;1.63;;;0.60;;
15482;SDS011;7843;50.330;7.312;2022-09-28T16:20:45;1.40;;;0.80;;
15482;SDS011;7843;50.330;7.312;2022-09-28T16:25:49;2.78;;;0.98;;
15482;SDS011;7843;50.330;7.312;2022-09-28T16:28:24;2.40;;;0.77;;
15482;SDS011;7843;50.330;7.312;2022-09-28T16:33:43;1.15;;;0.70;;
15482;SDS011;7843;50.330;7.312;2022-09-28T16:36:14;1.55;;;0.77;;
15482;SDS011;7843;50.330;7.312;2022-09-28T16:38:45;1.60;;;0.77;;
15482;SDS011;7843;50.330;7.312;2022-09-28T16:41:13;1.40;;;0.60;;
15482;SDS011;7843;50.330;7.312;2022-09-28T16:43:44;1.85;;;1.00;;
15482;SDS011;7843;50.330;7.312;2022-09-28T16:46:12;3.40;;;0.90;;
15482;SDS011;7843;50.330;7.312;2022-09-28T16:48:43;2.67;;;0.82;;
15482;SDS011;7843;50.330;7.312;2022-09-28T16:51:14;2.55;;;1.00;;
15482;SDS011;7843;50.330;7.312;2022-09-28T16:53:41;2.75;;;1.10;;
15482;SDS011;7843;50.330;7.312;2022-09-28T16:56:28;2.20;;;1.10;;
15482;SDS011;7843;50.330;7.312;2022-09-28T16:58:56;3.05;;;1.00;;
15482;SDS011;7843;50.330;7.312;2022-09-28T17:01:22;2.38;;;0.82;;
15482;SDS011;7843;50.330;7.312;2022-09-28T17:03:50;1.67;;;0.90;;
15482;SDS011;7843;50.330;7.312;2022-09-28T17:06:17;2.30;;;1.00;;
15482;SDS011;7843;50.330;7.312;2022-09-28T17:08:46;3.00;;;1.02;;
15482;SDS011;7843;50.330;7.312;2022-09-28T17:11:14;2.00;;;0.90;;
15482;SDS011;7843;50.330;7.312;2022-09-28T17:13:44;1.55;;;0.82;;
15482;SDS011;7843;50.330;7.312;2022-09-28T17:16:17;2.15;;;0.80;;
15482;SDS011;7843;50.330;7.312;2022-09-28T17:18:50;1.98;;;1.00;;
15482;SDS011;7843;50.330;7.312;2022-09-28T17:21:17;5.78;;;1.10;;
15482;SDS011;7843;50.330;7.312;2022-09-28T17:23:46;1.80;;;1.00;;
15482;SDS011;7843;50.330;7.312;2022-09-28T17:28:56;4.22;;;1.20;;
15482;SDS011;7843;50.330;7.312;2022-09-28T17:31:24;3.28;;;1.10;;
15482;SDS011;7843;50.330;7.312;2022-09-28T17:33:51;1.42;;;0.90;;
15482;SDS011;7843;50.330;7.312;2022-09-28T17:36:19;2.83;;;1.00;;
15482;SDS011;7843;50.330;7.312;2022-09-28T17:38:47;1.70;;;0.95;;
15482;SDS011;7843;50.330;7.312;2022-09-28T17:41:15;2.28;;;0.93;;
15482;SDS011;7843;50.330;7.312;2022-09-28T17:43:45;2.70;;;1.00;;
15482;SDS011;7843;50.330;7.312;2022-09-28T17:46:26;2.03;;;0.90;;
15482;SDS011;7843;50.330;7.312;2022-09-28T17:48:57;3.58;;;1.10;;
15482;SDS011;7843;50.330;7.312;2022-09-28T17:51:26;2.25;;;1.02;;
15482;SDS011;7843;50.330;7.312;2022-09-28T17:53:55;1.75;;;1.08;;
15482;SDS011;7843;50.330;7.312;2022-09-28T17:56:23;2.53;;;1.13;;
15482;SDS011;7843;50.330;7.312;2022-09-28T17:58:52;2.33;;;1.30;;
15482;SDS011;7843;50.330;7.312;2022-09-28T18:01:25;3.20;;;1.10;;
15482;SDS011;7843;50.330;7.312;2022-09-28T18:03:55;4.03;;;1.52;;
15482;SDS011;7843;50.330;7.312;2022-09-28T18:06:21;3.40;;;1.30;;
15482;SDS011;7843;50.330;7.312;2022-09-28T18:08:48;2.40;;;1.45;;
15482;SDS011;7843;50.330;7.312;2022-09-28T18:11:15;2.92;;;1.50;;
15482;SDS011;7843;50.330;7.312;2022-09-28T18:13:44;3.05;;;1.08;;
15482;SDS011;7843;50.330;7.312;2022-09-28T18:16:12;4.35;;;1.30;;
15482;SDS011;7843;50.330;7.312;2022-09-28T18:18:39;2.90;;;1.10;;
15482;SDS011;7843;50.330;7.312;2022-09-28T18:21:06;2.45;;;0.98;;
15482;SDS011;7843;50.330;7.312;2022-09-28T18:23:34;1.65;;;0.75;;
15482;SDS011;7843;50.330;7.312;2022-09-28T18:26:02;1.08;;;0.82;;
15482;SDS011;7843;50.330;7.312;2022-09-28T18:28:29;2.25;;;1.00;;
15482;SDS011;7843;50.330;7.312;2022-09-28T18:30:56;1.48;;;0.98;;